sensor_id;sensor_type;location;lat;lon;timestamp;P1;durP1;ratioP1;P2;durP2;ratioP2
23494;SDS011;26107;50.832;2.950;2024-03-17T00:05:44;7.68;;;5.50;;
23494;SDS011;26107;50.832;2.950;2024-03-17T00:20:45;10.32;;;6.05;;
23494;SDS011;26107;50.832;2.950;2024-03-17T00:35:50;10.25;;;5.63;;
23494;SDS011;26107;50.832;2.950;2024-03-17T00:50:59;10.80;;;6.35;;
23494;SDS011;26107;50.832;2.950;2024-03-17T01:06:02;9.77;;;6.03;;
23494;SDS011;26107;50.832;2.950;2024-03-17T01:21:04;9.25;;;6.25;;
23494;SDS011;26107;50.832;2.950;2024-03-17T01:36:08;10.88;;;6.28;;
23494;SDS011;26107;50.832;2.950;2024-03-17T01:51:09;9.05;;;6.03;;
23494;SDS011;26107;50.832;2.950;2024-03-17T02:06:11;8.77;;;5.95;;
23494;SDS011;26107;50.832;2.950;2024-03-17T02:21:15;9.98;;;6.25;;
23494;SDS011;26107;50.832;2.950;2024-03-17T02:36:18;8.70;;;5.93;;
23494;SDS011;26107;50.832;2.950;2024-03-17T02:51:24;10.85;;;6.22;;
23494;SDS011;26107;50.832;2.950;2024-03-17T03:06:24;8.13;;;5.50;;
23494;SDS011;26107;50.832;2.950;2024-03-17T03:21:25;6.53;;;5.57;;
23494;SDS011;26107;50.832;2.950;2024-03-17T03:36:28;7.53;;;5.10;;
23494;SDS011;26107;50.832;2.950;2024-03-17T03:51:29;8.00;;;5.10;;
23494;SDS011;26107;50.832;2.950;2024-03-17T04:06:30;7.13;;;5.32;;
23494;SDS011;26107;50.832;2.950;2024-03-17T04:21:34;9.35;;;5.25;;
23494;SDS011;26107;50.832;2.950;2024-03-17T04:36:34;10.90;;;6.82;;
23494;SDS011;26107;50.832;2.950;2024-03-17T04:51:35;6.93;;;4.70;;
23494;SDS011;26107;50.832;2.950;2024-03-17T05:06:36;7.20;;;4.95;;
23494;SDS011;26107;50.832;2.950;2024-03-17T05:21:38;9.52;;;5.10;;
23494;SDS011;26107;50.832;2.950;2024-03-17T05:36:39;9.38;;;5.00;;
23494;SDS011;26107;50.832;2.950;2024-03-17T05:51:39;7.30;;;5.15;;
23494;SDS011;26107;50.832;2.950;2024-03-17T06:06:40;7.28;;;4.80;;
23494;SDS011;26107;50.832;2.950;2024-03-17T06:21:41;9.02;;;4.95;;
23494;SDS011;26107;50.832;2.950;2024-03-17T06:36:42;7.32;;;5.35;;
23494;SDS011;26107;50.832;2.950;2024-03-17T06:51:43;7.03;;;5.32;;
23494;SDS011;26107;50.832;2.950;2024-03-17T07:06:46;10.25;;;5.95;;
23494;SDS011;26107;50.832;2.950;2024-03-17T07:21:47;10.40;;;5.40;;
23494;SDS011;26107;50.832;2.950;2024-03-17T07:36:47;9.02;;;4.47;;
23494;SDS011;26107;50.832;2.950;2024-03-17T07:51:50;9.05;;;5.20;;
23494;SDS011;26107;50.832;2.950;2024-03-17T08:06:50;11.82;;;5.05;;
23494;SDS011;26107;50.832;2.950;2024-03-17T08:21:52;7.05;;;4.80;;
23494;SDS011;26107;50.832;2.950;2024-03-17T08:36:52;5.80;;;4.40;;
23494;SDS011;26107;50.832;2.950;2024-03-17T08:51:53;9.90;;;5.65;;
23494;SDS011;26107;50.832;2.950;2024-03-17T09:06:53;8.07;;;4.85;;
23494;SDS011;26107;50.832;2.950;2024-03-17T09:21:56;7.53;;;4.65;;
23494;SDS011;26107;50.832;2.950;2024-03-17T09:36:59;7.28;;;4.65;;
23494;SDS011;26107;50.832;2.950;2024-03-17T09:52:01;8.60;;;4.85;;
23494;SDS011;26107;50.832;2.950;2024-03-17T10:07:03;8.15;;;4.85;;
23494;SDS011;26107;50.832;2.950;2024-03-17T10:22:03;12.55;;;4.85;;
23494;SDS011;26107;50.832;2.950;2024-03-17T10:52:15;7.90;;;3.07;;
23494;SDS011;26107;50.832;2.950;2024-03-17T11:07:20;8.60;;;3.97;;
23494;SDS011;26107;50.832;2.950;2024-03-17T11:37:41;6.60;;;2.83;;
23494;SDS011;26107;50.832;2.950;2024-03-17T11:52:57;13.20;;;3.43;;
23494;SDS011;26107;50.832;2.950;2024-03-17T12:07:58;5.68;;;3.17;;
23494;SDS011;26107;50.832;2.950;2024-03-17T12:22:59;9.25;;;2.83;;
23494;SDS011;26107;50.832;2.950;2024-03-17T12:38:01;6.95;;;2.90;;
23494;SDS011;26107;50.832;2.950;2024-03-17T12:53:02;6.65;;;2.55;;
23494;SDS011;26107;50.832;2.950;2024-03-17T13:08:05;5.22;;;2.72;;
23494;SDS011;26107;50.832;2.950;2024-03-17T13:23:05;3.85;;;2.60;;
23494;SDS011;26107;50.832;2.950;2024-03-17T13:38:10;5.15;;;2.80;;
23494;SDS011;26107;50.832;2.950;2024-03-17T13:53:14;5.53;;;2.30;;
23494;SDS011;26107;50.832;2.950;2024-03-17T14:08:14;4.97;;;2.33;;
23494;SDS011;26107;50.832;2.950;2024-03-17T14:23:15;9.45;;;3.38;;
23494;SDS011;26107;50.832;2.950;2024-03-17T14:38:17;4.13;;;2.40;;
23494;SDS011;26107;50.832;2.950;2024-03-17T14:53:17;6.78;;;2.58;;
23494;SDS011;26107;50.832;2.950;2024-03-17T15:08:19;5.47;;;2.88;;
23494;SDS011;26107;50.832;2.950;2024-03-17T15:23:19;3.00;;;2.65;;
23494;SDS011;26107;50.832;2.950;2024-03-17T15:38:20;3.03;;;1.83;;
23494;SDS011;26107;50.832;2.950;2024-03-17T15:53:22;2.08;;;1.80;;
23494;SDS011;26107;50.832;2.950;2024-03-17T16:08:25;2.30;;;2.10;;
23494;SDS011;26107;50.832;2.950;2024-03-17T16:23:30;3.97;;;2.15;;
23494;SDS011;26107;50.832;2.950;2024-03-17T16:38:35;2.90;;;2.60;;
23494;SDS011;26107;50.832;2.950;2024-03-17T16:53:38;2.85;;;2.65;;
23494;SDS011;26107;50.832;2.950;2024-03-17T17:08:39;2.92;;;2.53;;
23494;SDS011;26107;50.832;2.950;2024-03-17T17:23:39;2.72;;;2.53;;
23494;SDS011;26107;50.832;2.950;2024-03-17T17:38:40;3.30;;;3.00;;
23494;SDS011;26107;50.832;2.950;2024-03-17T17:53:41;3.40;;;3.10;;
23494;SDS011;26107;50.832;2.950;2024-03-17T18:08:43;1.98;;;1.85;;
23494;SDS011;26107;50.832;2.950;2024-03-17T18:23:45;1.77;;;1.67;;
23494;SDS011;26107;50.832;2.950;2024-03-17T18:38:49;1.55;;;1.45;;
23494;SDS011;26107;50.832;2.950;2024-03-17T18:53:52;1.52;;;1.42;;
23494;SDS011;26107;50.832;2.950;2024-03-17T19:08:54;2.70;;;1.50;;
23494;SDS011;26107;50.832;2.950;2024-03-17T19:23:57;2.10;;;1.90;;
23494;SDS011;26107;50.832;2.950;2024-03-17T19:38:57;5.30;;;2.75;;
23494;SDS011;26107;50.832;2.950;2024-03-17T19:54:00;3.42;;;2.83;;
23494;SDS011;26107;50.832;2.950;2024-03-17T20:09:01;4.60;;;2.88;;
23494;SDS011;26107;50.832;2.950;2024-03-17T20:24:04;5.20;;;3.20;;
23494;SDS011;26107;50.832;2.950;2024-03-17T20:39:07;5.25;;;3.20;;
23494;SDS011;26107;50.832;2.950;2024-03-17T20:54:09;5.35;;;3.47;;
23494;SDS011;26107;50.832;2.950;2024-03-17T21:09:10;6.68;;;3.55;;
23494;SDS011;26107;50.832;2.950;2024-03-17T21:24:10;4.63;;;3.50;;
23494;SDS011;26107;50.832;2.950;2024-03-17T21:39:11;4.55;;;2.97;;
23494;SDS011;26107;50.832;2.950;2024-03-17T21:54:14;7.10;;;3.05;;
23494;SDS011;26107;50.832;2.950;2024-03-17T22:09:15;7.88;;;3.22;;
23494;SDS011;26107;50.832;2.950;2024-03-17T22:24:15;6.32;;;4.28;;
23494;SDS011;26107;50.832;2.950;2024-03-17T22:39:17;5.15;;;3.35;;
23494;SDS011;26107;50.832;2.950;2024-03-17T22:54:17;5.32;;;4.13;;
23494;SDS011;26107;50.832;2.950;2024-03-17T23:09:20;8.40;;;3.15;;
23494;SDS011;26107;50.832;2.950;2024-03-17T23:24:21;8.02;;;4.13;;
23494;SDS011;26107;50.832;2.950;2024-03-17T23:39:21;8.05;;;3.65;;
23494;SDS011;26107;50.832;2.950;2024-03-17T23:54:25;7.93;;;3.80;;
